createdAt,value
2023-02-09T00:00:22.174Z,5.30
2023-02-09T00:02:49.985Z,5.10
2023-02-09T00:05:19.251Z,6.40
2023-02-09T00:07:47.203Z,5.90
2023-02-09T00:10:15.121Z,6.03
2023-02-09T00:13:00.650Z,4.83
2023-02-09T00:15:28.486Z,4.90
2023-02-09T00:17:56.363Z,5.43
2023-02-09T00:20:25.497Z,4.50
2023-02-09T00:22:53.431Z,4.30
2023-02-09T00:25:21.261Z,4.47
2023-02-09T00:27:49.081Z,5.20
2023-02-09T00:30:16.927Z,5.57
2023-02-09T00:32:44.800Z,5.50
2023-02-09T00:35:12.683Z,4.87
2023-02-09T00:37:42.046Z,5.40
2023-02-09T00:40:10.751Z,5.03
2023-02-09T00:42:38.726Z,5.27
2023-02-09T00:45:09.931Z,4.27
2023-02-09T00:47:37.753Z,5.00
2023-02-09T00:50:08.396Z,5.47
2023-02-09T00:52:36.727Z,5.80
2023-02-09T00:55:06.961Z,5.57
2023-02-09T00:57:36.051Z,5.90
2023-02-09T01:00:04.563Z,5.33
2023-02-09T01:02:32.586Z,5.50
2023-02-09T01:05:00.738Z,4.55
2023-02-09T01:07:28.649Z,4.70
2023-02-09T01:09:56.532Z,4.77
2023-02-09T01:12:25.756Z,5.93
2023-02-09T01:14:53.638Z,5.47
2023-02-09T01:17:21.602Z,5.50
2023-02-09T01:19:52.835Z,5.37
2023-02-09T01:22:20.838Z,5.57
2023-02-09T01:24:48.986Z,5.70
2023-02-09T01:27:16.953Z,4.63
2023-02-09T01:29:46.416Z,4.83
2023-02-09T01:32:14.238Z,5.67
2023-02-09T01:34:42.392Z,5.60
2023-02-09T01:37:10.194Z,6.00
2023-02-09T01:39:38.029Z,4.70
2023-02-09T01:42:05.936Z,4.68
2023-02-09T01:45:22.637Z,4.67
2023-02-09T01:47:57.547Z,3.93
2023-02-09T01:50:27.052Z,4.77
2023-02-09T01:52:55.563Z,3.80
2023-02-09T01:55:26.530Z,4.53
2023-02-09T01:57:58.603Z,3.87
2023-02-09T02:00:27.557Z,3.80
2023-02-09T02:03:02.630Z,4.90
2023-02-09T02:05:32.216Z,4.97
2023-02-09T02:08:04.240Z,4.13
2023-02-09T02:10:32.426Z,3.72
2023-02-09T02:13:00.863Z,4.83
2023-02-09T02:15:34.303Z,4.30
2023-02-09T02:18:17.706Z,5.63
2023-02-09T02:21:07.055Z,4.70
2023-02-09T02:23:44.360Z,4.20
2023-02-09T02:26:58.121Z,4.03
2023-02-09T02:29:49.991Z,3.03
2023-02-09T02:32:33.846Z,3.85
2023-02-09T02:35:06.206Z,4.10
2023-02-09T02:37:43.660Z,4.87
2023-02-09T02:40:23.123Z,3.43
2023-02-09T02:42:55.998Z,3.83
2023-02-09T02:45:33.697Z,4.43
2023-02-09T02:48:11.910Z,4.10
2023-02-09T02:50:46.264Z,4.00
2023-02-09T02:53:17.338Z,4.07
2023-02-09T02:55:48.080Z,3.90
2023-02-09T02:58:17.757Z,3.97
2023-02-09T03:00:52.971Z,4.70
2023-02-09T03:03:24.495Z,4.13
2023-02-09T03:05:53.901Z,4.00
2023-02-09T03:08:21.905Z,3.85
2023-02-09T03:10:52.914Z,3.40
2023-02-09T03:13:39.434Z,4.00
2023-02-09T03:16:19.288Z,3.90
2023-02-09T03:19:04.054Z,5.00
2023-02-09T03:21:42.565Z,4.10
2023-02-09T03:24:20.484Z,3.35
2023-02-09T03:26:54.227Z,3.90
2023-02-09T03:29:24.708Z,4.00
2023-02-09T03:31:53.115Z,4.77
2023-02-09T03:34:22.316Z,4.10
2023-02-09T03:36:52.853Z,4.23
2023-02-09T03:39:20.869Z,3.10
2023-02-09T03:41:48.761Z,3.13
2023-02-09T03:44:28.680Z,4.10
2023-02-09T03:46:58.403Z,3.70
2023-02-09T03:49:32.686Z,3.50
2023-02-09T03:52:01.451Z,4.20
2023-02-09T03:54:30.634Z,3.20
2023-02-09T03:56:59.015Z,3.50
2023-02-09T03:59:27.709Z,3.50
2023-02-09T04:01:58.154Z,3.67
2023-02-09T04:04:27.640Z,4.15
2023-02-09T04:06:55.986Z,3.03
2023-02-09T04:09:24.450Z,4.10
2023-02-09T04:11:55.884Z,3.35
2023-02-09T04:14:24.053Z,2.90
2023-02-09T04:16:51.998Z,3.87
2023-02-09T04:19:19.834Z,3.50
2023-02-09T04:21:49.124Z,4.18
2023-02-09T04:24:16.951Z,3.60
2023-02-09T04:26:44.751Z,4.68
2023-02-09T04:29:12.635Z,4.75
2023-02-09T04:31:40.491Z,4.07
2023-02-09T04:34:08.377Z,3.80
2023-02-09T04:36:36.142Z,4.05
2023-02-09T04:39:05.496Z,3.83
2023-02-09T04:41:33.367Z,3.42
2023-02-09T04:44:01.240Z,4.20
2023-02-09T04:46:29.158Z,3.88
2023-02-09T04:48:57.143Z,4.63
2023-02-09T04:51:25.030Z,4.80
2023-02-09T04:53:52.842Z,4.47
2023-02-09T04:56:22.043Z,4.82
2023-02-09T04:59:07.231Z,4.45
2023-02-09T05:01:35.087Z,5.03
2023-02-09T05:04:02.943Z,5.03
2023-02-09T05:06:30.793Z,3.85
2023-02-09T05:08:58.704Z,5.30
2023-02-09T05:11:27.916Z,5.10
2023-02-09T05:13:57.159Z,4.30
2023-02-09T05:16:25.142Z,5.63
2023-02-09T05:18:52.971Z,4.75
2023-02-09T05:21:20.813Z,4.45
2023-02-09T05:23:48.601Z,5.13
2023-02-09T05:26:16.419Z,4.70
2023-02-09T05:28:45.531Z,6.38
2023-02-09T05:31:13.470Z,5.20
2023-02-09T05:33:41.351Z,4.55
2023-02-09T05:36:12.595Z,5.18
2023-02-09T05:38:40.982Z,5.35
2023-02-09T05:41:10.435Z,5.95
2023-02-09T05:43:39.729Z,5.00
2023-02-09T05:46:08.906Z,4.93
2023-02-09T05:48:36.746Z,4.60
2023-02-09T05:51:04.579Z,4.82
2023-02-09T05:53:32.533Z,5.90
2023-02-09T05:56:00.450Z,5.20
2023-02-09T05:58:28.241Z,7.05
2023-02-09T06:00:56.090Z,4.80
2023-02-09T06:03:25.272Z,6.35
2023-02-09T06:05:53.111Z,7.28
2023-02-09T06:08:20.853Z,5.35
2023-02-09T06:10:48.616Z,6.10
2023-02-09T06:13:16.409Z,7.00
2023-02-09T06:15:44.273Z,7.78
2023-02-09T06:18:12.088Z,6.50
2023-02-09T06:20:41.254Z,6.35
2023-02-09T06:23:09.360Z,7.75
2023-02-09T06:25:39.861Z,6.80
2023-02-09T06:28:07.776Z,6.63
2023-02-09T06:30:35.818Z,7.97
2023-02-09T06:33:03.720Z,7.18
2023-02-09T06:35:31.527Z,7.57
2023-02-09T06:38:00.827Z,6.93
2023-02-09T06:40:29.112Z,7.63
2023-02-09T06:42:57.087Z,6.82
2023-02-09T06:45:24.861Z,8.18
2023-02-09T06:47:52.876Z,7.25
2023-02-09T06:50:21.061Z,7.68
2023-02-09T06:52:48.971Z,8.00
2023-02-09T06:55:18.180Z,6.60
2023-02-09T06:57:46.081Z,10.15
2023-02-09T07:00:15.336Z,6.80
2023-02-09T07:02:43.500Z,7.45
2023-02-09T07:05:11.971Z,7.32
2023-02-09T07:07:40.060Z,8.45
2023-02-09T07:10:09.838Z,8.45
2023-02-09T07:12:40.659Z,8.45
2023-02-09T07:15:09.248Z,10.77
2023-02-09T07:17:37.273Z,8.70
2023-02-09T07:20:05.949Z,8.88
2023-02-09T07:22:34.459Z,7.72
2023-02-09T07:25:02.270Z,9.82
2023-02-09T07:27:30.051Z,9.95
2023-02-09T07:30:00.906Z,10.23
2023-02-09T07:32:29.180Z,9.60
2023-02-09T07:34:56.981Z,9.32
2023-02-09T07:37:24.799Z,14.43
2023-02-09T07:39:52.549Z,12.00
2023-02-09T07:42:22.005Z,10.15
2023-02-09T07:44:51.047Z,9.43
2023-02-09T07:47:20.283Z,8.27
2023-02-09T07:49:48.042Z,8.48
2023-02-09T07:52:15.988Z,9.10
2023-02-09T07:54:43.953Z,9.82
2023-02-09T07:57:13.858Z,10.57
2023-02-09T07:59:41.687Z,12.35
2023-02-09T08:02:17.998Z,10.90
2023-02-09T08:04:50.582Z,9.35
2023-02-09T08:07:18.519Z,10.55
2023-02-09T08:09:47.000Z,11.63
2023-02-09T08:12:15.161Z,11.02
2023-02-09T08:14:48.215Z,9.23
2023-02-09T08:17:23.996Z,10.13
2023-02-09T08:19:57.263Z,10.27
2023-02-09T08:22:28.669Z,9.18
2023-02-09T08:24:56.998Z,8.85
2023-02-09T08:27:24.876Z,8.55
2023-02-09T08:29:53.034Z,8.17
2023-02-09T08:32:20.825Z,9.18
2023-02-09T08:34:48.650Z,9.25
2023-02-09T08:37:17.875Z,7.97
2023-02-09T08:39:46.225Z,8.88
2023-02-09T08:42:14.095Z,10.10
2023-02-09T08:44:41.950Z,9.30
2023-02-09T08:47:09.792Z,10.00
2023-02-09T08:49:37.826Z,9.95
2023-02-09T08:52:08.162Z,11.25
2023-02-09T08:54:37.451Z,10.13
2023-02-09T08:57:05.322Z,9.48
2023-02-09T08:59:33.834Z,8.75
2023-02-09T09:02:01.668Z,8.80
2023-02-09T09:04:29.473Z,10.70
2023-02-09T09:06:58.476Z,9.37
2023-02-09T09:09:26.562Z,9.65
2023-02-09T09:11:55.754Z,8.47
2023-02-09T09:14:23.489Z,8.97
2023-02-09T09:16:51.333Z,9.20
2023-02-09T09:19:19.199Z,8.90
2023-02-09T09:21:47.044Z,9.77
2023-02-09T09:24:16.088Z,10.63
2023-02-09T09:26:43.930Z,9.47
2023-02-09T09:29:13.115Z,8.50
2023-02-09T09:31:41.063Z,9.60
2023-02-09T09:34:08.980Z,10.27
2023-02-09T09:36:37.039Z,9.33
2023-02-09T09:39:05.058Z,9.37
2023-02-09T09:41:36.418Z,7.37
2023-02-09T09:44:11.613Z,7.30
2023-02-09T09:46:44.725Z,6.20
2023-02-09T09:49:21.723Z,7.57
2023-02-09T09:51:53.399Z,8.13
2023-02-09T09:54:24.293Z,7.23
2023-02-09T09:56:53.160Z,7.30
2023-02-09T09:59:24.260Z,6.90
2023-02-09T10:01:55.099Z,7.70
2023-02-09T10:04:23.116Z,8.27
2023-02-09T10:06:59.087Z,8.27
2023-02-09T10:09:35.952Z,8.77
2023-02-09T10:12:15.950Z,8.00
2023-02-09T10:14:43.855Z,9.43
2023-02-09T10:17:13.161Z,9.90
2023-02-09T10:19:41.004Z,8.37
2023-02-09T10:22:13.670Z,8.80
2023-02-09T10:24:41.934Z,7.13
2023-02-09T10:27:15.590Z,7.77
2023-02-09T10:29:43.501Z,7.97
2023-02-09T10:32:18.654Z,7.67
2023-02-09T10:34:50.384Z,6.60
2023-02-09T10:37:25.007Z,6.80
2023-02-09T10:40:02.243Z,5.77
2023-02-09T10:42:32.745Z,7.60
2023-02-09T10:45:08.222Z,5.87
2023-02-09T10:47:37.408Z,5.93
2023-02-09T10:50:17.009Z,7.67
2023-02-09T10:52:55.542Z,7.37
2023-02-09T10:55:27.663Z,7.57
2023-02-09T10:58:13.357Z,6.20
2023-02-09T11:00:50.102Z,6.77
2023-02-09T11:03:21.256Z,7.00
2023-02-09T11:05:59.275Z,5.80
2023-02-09T11:08:38.621Z,5.60
2023-02-09T11:11:09.579Z,5.37
2023-02-09T11:13:39.903Z,4.53
2023-02-09T11:16:55.471Z,5.50
2023-02-09T11:19:42.034Z,6.20
2023-02-09T11:22:13.765Z,5.90
2023-02-09T11:24:55.015Z,6.20
2023-02-09T11:28:13.675Z,5.17
2023-02-09T11:31:40.938Z,3.87
2023-02-09T11:34:19.363Z,4.60
2023-02-09T11:36:57.921Z,4.80
2023-02-09T11:39:32.629Z,4.80
2023-02-09T11:42:21.559Z,4.47
2023-02-09T11:44:55.514Z,4.93
2023-02-09T11:47:29.020Z,4.73
2023-02-09T11:49:58.689Z,5.70
2023-02-09T11:52:34.675Z,5.37
2023-02-09T11:55:12.268Z,4.53
2023-02-09T11:57:45.992Z,3.83
2023-02-09T12:00:20.899Z,4.70
2023-02-09T12:02:56.678Z,5.30
2023-02-09T12:05:25.504Z,5.40
2023-02-09T12:08:23.197Z,5.77
2023-02-09T12:11:08.732Z,6.13
2023-02-09T12:13:51.381Z,6.60
2023-02-09T12:16:23.040Z,6.93
2023-02-09T12:18:53.556Z,6.03
2023-02-09T12:21:32.207Z,6.60
2023-02-09T12:24:02.364Z,6.83
2023-02-09T12:26:43.707Z,6.70
2023-02-09T12:29:25.065Z,7.40
2023-02-09T12:32:24.425Z,6.67
2023-02-09T12:34:56.200Z,8.50
2023-02-09T12:37:27.658Z,5.20
2023-02-09T12:40:22.465Z,7.30
2023-02-09T12:43:26.911Z,7.80
2023-02-09T12:46:47.849Z,6.00
2023-02-09T12:49:21.478Z,6.20
2023-02-09T12:52:13.410Z,6.53
2023-02-09T12:54:45.576Z,8.03
2023-02-09T12:57:52.518Z,6.30
2023-02-09T13:00:53.896Z,7.37
2023-02-09T13:03:24.248Z,5.93
2023-02-09T13:05:55.073Z,6.53
2023-02-09T13:08:35.541Z,6.70
2023-02-09T13:11:13.786Z,6.30
2023-02-09T13:13:50.504Z,4.97
2023-02-09T13:17:06.224Z,7.03
2023-02-09T13:20:05.553Z,6.40
2023-02-09T13:22:47.612Z,6.80
2023-02-09T13:25:22.812Z,6.77
2023-02-09T13:27:51.202Z,6.30
2023-02-09T13:30:27.823Z,6.90
2023-02-09T13:33:03.733Z,7.50
2023-02-09T13:35:36.296Z,7.43
2023-02-09T13:38:16.015Z,7.27
2023-02-09T13:40:47.478Z,6.70
2023-02-09T13:43:19.430Z,6.50
2023-02-09T13:45:48.220Z,5.60
2023-02-09T13:48:24.596Z,5.23
2023-02-09T13:50:55.512Z,6.20
2023-02-09T13:53:25.937Z,6.90
2023-02-09T13:55:56.702Z,6.53
2023-02-09T13:58:27.861Z,5.83
2023-02-09T14:00:59.398Z,7.10
2023-02-09T14:03:30.469Z,6.90
2023-02-09T14:06:03.556Z,6.10
2023-02-09T14:08:33.348Z,7.23
2023-02-09T14:11:06.854Z,6.43
2023-02-09T14:13:40.139Z,7.00
2023-02-09T14:16:07.973Z,6.87
2023-02-09T14:18:48.210Z,6.80
2023-02-09T14:21:24.340Z,7.57
2023-02-09T14:24:14.203Z,6.30
2023-02-09T14:26:48.717Z,7.17
2023-02-09T14:29:20.493Z,7.03
2023-02-09T14:31:51.034Z,7.60
2023-02-09T14:34:36.322Z,7.07
2023-02-09T14:37:30.809Z,7.17
2023-02-09T14:40:01.881Z,6.00
2023-02-09T14:42:30.356Z,7.63
2023-02-09T14:45:00.179Z,7.60
2023-02-09T14:47:30.892Z,7.10
2023-02-09T14:49:59.040Z,7.97
2023-02-09T14:52:31.371Z,6.97
2023-02-09T14:55:02.899Z,8.10
2023-02-09T14:57:32.169Z,6.70
2023-02-09T15:00:02.865Z,6.90
2023-02-09T15:02:32.012Z,7.07
2023-02-09T15:05:00.192Z,7.43
2023-02-09T15:07:35.953Z,7.10
2023-02-09T15:10:04.839Z,7.30
2023-02-09T15:12:32.734Z,8.30
2023-02-09T15:15:04.982Z,7.53
2023-02-09T15:17:34.777Z,7.67
2023-02-09T15:20:02.654Z,7.70
2023-02-09T15:22:32.679Z,8.70
2023-02-09T15:25:00.748Z,7.37
2023-02-09T15:27:37.122Z,8.73
2023-02-09T15:30:11.375Z,6.87
2023-02-09T15:32:39.245Z,6.97
2023-02-09T15:35:07.789Z,8.00
2023-02-09T15:37:39.426Z,7.67
2023-02-09T15:40:39.687Z,8.57
2023-02-09T15:43:35.707Z,8.07
2023-02-09T15:46:21.744Z,8.27
2023-02-09T15:48:49.568Z,7.53
2023-02-09T15:51:18.605Z,7.43
2023-02-09T15:53:48.456Z,7.23
2023-02-09T15:56:16.770Z,8.00
2023-02-09T15:58:46.251Z,8.07
2023-02-09T16:01:16.552Z,7.57
2023-02-09T16:03:44.911Z,7.83
2023-02-09T16:06:15.577Z,10.67
2023-02-09T16:08:44.358Z,8.30
2023-02-09T16:11:20.333Z,8.30
2023-02-09T16:13:48.294Z,10.33
2023-02-09T16:16:17.888Z,7.93
2023-02-09T16:18:46.488Z,8.23
2023-02-09T16:21:21.068Z,8.03
2023-02-09T16:23:49.353Z,7.83
2023-02-09T16:26:19.220Z,7.63
2023-02-09T16:28:48.063Z,7.40
2023-02-09T16:31:15.872Z,8.33
2023-02-09T16:33:43.737Z,8.50
2023-02-09T16:36:15.409Z,9.17
2023-02-09T16:38:43.892Z,7.20
2023-02-09T16:41:35.116Z,9.80
2023-02-09T16:44:13.364Z,8.20
2023-02-09T16:46:41.272Z,9.13
2023-02-09T16:49:20.569Z,10.77
2023-02-09T16:51:48.354Z,8.83
2023-02-09T16:54:16.362Z,10.20
2023-02-09T16:56:53.930Z,10.30
2023-02-09T16:59:23.790Z,9.80
2023-02-09T17:01:51.750Z,11.23
2023-02-09T17:04:19.969Z,10.40
2023-02-09T17:06:52.689Z,9.20
2023-02-09T17:09:20.507Z,10.50
2023-02-09T17:11:48.986Z,9.10
2023-02-09T17:14:16.786Z,7.77
2023-02-09T17:16:49.710Z,9.57
2023-02-09T17:19:19.019Z,9.67
2023-02-09T17:21:46.821Z,9.90
2023-02-09T17:24:17.205Z,10.23
2023-02-09T17:26:45.154Z,10.00
2023-02-09T17:29:13.304Z,10.10
2023-02-09T17:31:52.763Z,9.50
2023-02-09T17:34:26.842Z,8.50
2023-02-09T17:36:54.770Z,9.87
2023-02-09T17:39:22.521Z,9.67
2023-02-09T17:41:50.454Z,9.97
2023-02-09T17:44:32.073Z,10.07
2023-02-09T17:47:09.930Z,11.03
2023-02-09T17:49:39.045Z,11.23
2023-02-09T17:52:06.991Z,11.60
2023-02-09T17:54:34.792Z,10.40
2023-02-09T17:57:02.567Z,11.40
2023-02-09T17:59:30.406Z,9.53
2023-02-09T18:01:58.793Z,11.10
2023-02-09T18:04:28.443Z,11.97
2023-02-09T18:06:58.163Z,11.70
2023-02-09T18:09:25.985Z,10.37
2023-02-09T18:12:02.074Z,12.70
2023-02-09T18:14:31.717Z,13.10
2023-02-09T18:16:59.865Z,12.00
2023-02-09T18:19:27.839Z,14.10
2023-02-09T18:21:59.032Z,11.90
2023-02-09T18:24:29.557Z,12.80
2023-02-09T18:26:57.514Z,12.70
2023-02-09T18:29:29.327Z,13.43
2023-02-09T18:31:57.813Z,12.60
2023-02-09T18:34:25.979Z,11.20
2023-02-09T18:36:53.844Z,12.87
2023-02-09T18:39:23.033Z,10.50
2023-02-09T18:41:54.347Z,11.77
2023-02-09T18:44:28.428Z,11.33
2023-02-09T18:46:56.838Z,11.73
2023-02-09T18:49:24.684Z,13.40
2023-02-09T18:51:52.725Z,12.33
2023-02-09T18:54:21.829Z,15.00
2023-02-09T18:56:49.687Z,14.53
2023-02-09T18:59:18.277Z,15.97
2023-02-09T19:01:46.472Z,20.07
2023-02-09T19:04:14.575Z,17.43
2023-02-09T19:06:42.425Z,30.50
2023-02-09T19:09:10.284Z,30.50
2023-02-09T19:11:39.466Z,24.77
2023-02-09T19:14:24.739Z,23.87
2023-02-09T19:16:52.515Z,21.97
2023-02-09T19:19:20.885Z,24.93
2023-02-09T19:21:51.916Z,20.80
2023-02-09T19:24:20.112Z,17.43
2023-02-09T19:26:49.377Z,16.13
2023-02-09T19:29:17.696Z,17.13
2023-02-09T19:31:46.447Z,16.70
2023-02-09T19:34:14.295Z,14.43
2023-02-09T19:36:42.165Z,15.63
2023-02-09T19:39:11.530Z,14.63
2023-02-09T19:41:39.473Z,14.97
2023-02-09T19:44:08.681Z,15.33
2023-02-09T19:46:36.466Z,13.40
2023-02-09T19:49:04.808Z,13.50
2023-02-09T19:51:32.689Z,14.00
2023-02-09T19:54:00.448Z,14.80
2023-02-09T19:56:28.429Z,15.07
2023-02-09T19:58:56.296Z,15.37
2023-02-09T20:01:26.792Z,15.50
2023-02-09T20:03:54.633Z,15.13
2023-02-09T20:06:22.416Z,14.40
2023-02-09T20:08:50.713Z,15.00
2023-02-09T20:11:20.330Z,15.07
2023-02-09T20:13:52.184Z,14.00
2023-02-09T20:16:23.136Z,15.40
2023-02-09T20:18:53.434Z,14.80
2023-02-09T20:21:22.869Z,14.00
2023-02-09T20:23:55.206Z,14.37
2023-02-09T20:26:26.415Z,14.23
2023-02-09T20:28:54.576Z,13.30
2023-02-09T20:31:24.064Z,14.93
2023-02-09T20:33:53.287Z,13.53
2023-02-09T20:36:24.557Z,13.57
2023-02-09T20:38:53.571Z,14.60
2023-02-09T20:41:21.525Z,14.13
2023-02-09T20:44:07.096Z,14.00
2023-02-09T20:46:52.945Z,15.33
2023-02-09T20:49:22.930Z,16.37
2023-02-09T20:51:50.684Z,18.40
2023-02-09T20:54:18.574Z,23.60
2023-02-09T20:56:46.636Z,14.10
2023-02-09T20:59:14.551Z,13.00
2023-02-09T21:01:44.935Z,20.17
2023-02-09T21:04:13.027Z,16.87
2023-02-09T21:06:42.301Z,16.30
2023-02-09T21:09:14.746Z,15.40
2023-02-09T21:11:43.244Z,14.73
2023-02-09T21:14:21.745Z,15.20
2023-02-09T21:16:56.154Z,14.20
2023-02-09T21:19:24.291Z,14.83
2023-02-09T21:21:53.532Z,15.10
2023-02-09T21:24:21.880Z,14.00
2023-02-09T21:26:49.772Z,14.80
2023-02-09T21:29:17.652Z,14.53
2023-02-09T21:31:45.893Z,15.33
2023-02-09T21:34:16.271Z,13.77
2023-02-09T21:36:44.357Z,14.57
2023-02-09T21:39:14.001Z,14.53
2023-02-09T21:41:59.582Z,13.60
2023-02-09T21:44:27.383Z,13.93
2023-02-09T21:46:55.158Z,14.80
2023-02-09T21:49:23.382Z,15.30
2023-02-09T21:51:51.189Z,15.70
2023-02-09T21:54:20.360Z,14.27
2023-02-09T21:56:48.167Z,13.97
2023-02-09T21:59:15.915Z,15.43
2023-02-09T22:01:43.792Z,13.83
2023-02-09T22:04:11.734Z,15.57
2023-02-09T22:06:39.632Z,16.57
2023-02-09T22:09:07.394Z,15.60
2023-02-09T22:11:36.600Z,15.10
2023-02-09T22:14:04.440Z,15.97
2023-02-09T22:16:32.595Z,18.27
2023-02-09T22:19:00.871Z,17.20
2023-02-09T22:21:28.688Z,17.90
2023-02-09T22:23:56.605Z,18.27
2023-02-09T22:26:24.478Z,17.80
2023-02-09T22:28:53.573Z,17.37
2023-02-09T22:31:22.433Z,18.10
2023-02-09T22:33:54.138Z,16.37
2023-02-09T22:36:23.294Z,15.57
2023-02-09T22:38:51.554Z,16.93
2023-02-09T22:41:22.678Z,15.80
2023-02-09T22:43:52.267Z,16.90
2023-02-09T22:46:22.747Z,17.00
2023-02-09T22:48:54.285Z,17.17
2023-02-09T22:51:23.810Z,17.60
2023-02-09T22:53:52.064Z,17.40
2023-02-09T22:56:19.873Z,17.47
2023-02-09T23:01:31.001Z,18.30
2023-02-09T23:03:59.544Z,17.47
2023-02-09T23:06:29.848Z,17.10
2023-02-09T23:09:00.538Z,17.70
2023-02-09T23:11:29.694Z,17.30
2023-02-09T23:14:13.695Z,17.90
2023-02-09T23:16:44.728Z,17.30
2023-02-09T23:19:15.295Z,17.03
2023-02-09T23:21:45.969Z,16.57
2023-02-09T23:24:14.868Z,16.87
2023-02-09T23:26:43.071Z,16.70
2023-02-09T23:29:14.275Z,15.00
2023-02-09T23:31:44.976Z,17.70
2023-02-09T23:34:16.052Z,14.80
2023-02-09T23:36:44.108Z,16.40
2023-02-09T23:39:15.050Z,15.93
2023-02-09T23:41:43.039Z,16.30
2023-02-09T23:44:10.963Z,18.67
2023-02-09T23:46:39.043Z,13.77
2023-02-09T23:49:08.358Z,15.30
2023-02-09T23:51:37.301Z,14.87
2023-02-09T23:54:07.113Z,15.57
2023-02-09T23:56:37.511Z,13.80
2023-02-09T23:59:06.642Z,14.57
